sensor_id;sensor_type;location;lat;lon;timestamp;temperature;humidity
67186;HTU21D;54116;53.518;49.398;2023-02-24T01:29:52;-16.79;102.36
67186;HTU21D;54116;53.518;49.398;2023-02-24T01:46:43;-17.51;102.13
67186;HTU21D;54116;53.518;49.398;2023-02-24T02:57:39;-17.87;103.18
67186;HTU21D;54116;53.518;49.398;2023-02-24T03:02:41;-17.78;103.57
67186;HTU21D;54116;53.518;49.398;2023-02-24T03:05:09;-17.74;103.81
67186;HTU21D;54116;53.518;49.398;2023-02-24T03:37:49;-18.21;102.18
67186;HTU21D;54116;53.518;49.398;2023-02-24T03:40:16;-18.30;101.17
67186;HTU21D;54116;53.518;49.398;2023-02-24T03:47:45;-18.31;101.09
67186;HTU21D;54116;53.518;49.398;2023-02-24T03:50:14;-18.29;101.20
67186;HTU21D;54116;53.518;49.398;2023-02-24T04:05:25;-18.22;100.40
67186;HTU21D;54116;53.518;49.398;2023-02-24T04:15:05;-17.77;100.53
67186;HTU21D;54116;53.518;49.398;2023-02-24T04:20:07;-17.66;99.31
67186;HTU21D;54116;53.518;49.398;2023-02-24T04:22:55;-17.54;99.46
67186;HTU21D;54116;53.518;49.398;2023-02-24T04:32:27;-16.91;99.89
67186;HTU21D;54116;53.518;49.398;2023-02-24T04:35:04;-16.70;99.86
67186;HTU21D;54116;53.518;49.398;2023-02-24T04:37:32;-16.52;99.88
67186;HTU21D;54116;53.518;49.398;2023-02-24T04:40:03;-16.41;99.03
67186;HTU21D;54116;53.518;49.398;2023-02-24T04:45:21;-15.24;101.16
67186;HTU21D;54116;53.518;49.398;2023-02-24T04:47:50;-13.87;96.81
67186;HTU21D;54116;53.518;49.398;2023-02-24T04:50:19;-13.27;89.51
67186;HTU21D;54116;53.518;49.398;2023-02-24T05:29:05;-11.96;86.64
67186;HTU21D;54116;53.518;49.398;2023-02-24T05:31:31;-11.78;85.38
67186;HTU21D;54116;53.518;49.398;2023-02-24T05:34:00;-11.68;83.74
67186;HTU21D;54116;53.518;49.398;2023-02-24T05:36:38;-11.42;84.41
67186;HTU21D;54116;53.518;49.398;2023-02-24T05:39:11;-10.99;82.47
67186;HTU21D;54116;53.518;49.398;2023-02-24T06:13:30;-10.22;77.05
67186;HTU21D;54116;53.518;49.398;2023-02-24T06:33:34;-9.64;76.40
67186;HTU21D;54116;53.518;49.398;2023-02-24T06:36:02;-9.54;74.49
67186;HTU21D;54116;53.518;49.398;2023-02-24T06:38:34;-9.53;75.62
67186;HTU21D;54116;53.518;49.398;2023-02-24T06:41:01;-9.73;75.06
67186;HTU21D;54116;53.518;49.398;2023-02-24T06:45:44;-9.33;76.01
67186;HTU21D;54116;53.518;49.398;2023-02-24T06:48:10;-9.29;73.73
67186;HTU21D;54116;53.518;49.398;2023-02-24T06:50:36;-9.78;74.91
67186;HTU21D;54116;53.518;49.398;2023-02-24T06:53:03;-9.68;75.99
67186;HTU21D;54116;53.518;49.398;2023-02-24T06:55:33;-9.64;75.61
67186;HTU21D;54116;53.518;49.398;2023-02-24T06:58:01;-9.67;74.95
67186;HTU21D;54116;53.518;49.398;2023-02-24T07:00:32;-9.64;76.00
67186;HTU21D;54116;53.518;49.398;2023-02-24T07:03:04;-9.63;74.69
67186;HTU21D;54116;53.518;49.398;2023-02-24T07:07:51;-9.46;75.58
67186;HTU21D;54116;53.518;49.398;2023-02-24T07:10:17;-9.36;74.21
67186;HTU21D;54116;53.518;49.398;2023-02-24T07:12:45;-9.25;74.47
67186;HTU21D;54116;53.518;49.398;2023-02-24T07:15:11;-9.44;72.80
67186;HTU21D;54116;53.518;49.398;2023-02-24T07:17:38;-9.64;75.26
67186;HTU21D;54116;53.518;49.398;2023-02-24T07:20:05;-9.84;74.23
67186;HTU21D;54116;53.518;49.398;2023-02-24T07:22:37;-9.71;77.11
67186;HTU21D;54116;53.518;49.398;2023-02-24T07:25:04;-9.39;74.05
67186;HTU21D;54116;53.518;49.398;2023-02-24T07:27:32;-9.42;72.93
67186;HTU21D;54116;53.518;49.398;2023-02-24T07:29:58;-9.74;75.20
67186;HTU21D;54116;53.518;49.398;2023-02-24T07:32:24;-9.62;74.87
67186;HTU21D;54116;53.518;49.398;2023-02-24T07:34:52;-9.57;74.15
67186;HTU21D;54116;53.518;49.398;2023-02-24T07:37:19;-9.57;74.92
67186;HTU21D;54116;53.518;49.398;2023-02-24T07:39:46;-9.29;74.31
67186;HTU21D;54116;53.518;49.398;2023-02-24T07:42:12;-9.09;73.15
67186;HTU21D;54116;53.518;49.398;2023-02-24T07:44:38;-8.95;73.50
67186;HTU21D;54116;53.518;49.398;2023-02-24T07:47:05;-8.79;74.75
67186;HTU21D;54116;53.518;49.398;2023-02-24T07:49:33;-8.45;72.47
67186;HTU21D;54116;53.518;49.398;2023-02-24T07:51:59;-8.46;69.44
67186;HTU21D;54116;53.518;49.398;2023-02-24T07:54:26;-8.72;72.20
67186;HTU21D;54116;53.518;49.398;2023-02-24T07:56:56;-8.15;71.36
67186;HTU21D;54116;53.518;49.398;2023-02-24T07:59:29;-7.77;70.77
67186;HTU21D;54116;53.518;49.398;2023-02-24T08:01:56;-7.48;68.54
67186;HTU21D;54116;53.518;49.398;2023-02-24T08:04:25;-7.37;66.98
67186;HTU21D;54116;53.518;49.398;2023-02-24T08:06:52;-7.57;67.36
67186;HTU21D;54116;53.518;49.398;2023-02-24T08:09:24;-7.87;68.52
67186;HTU21D;54116;53.518;49.398;2023-02-24T08:12:14;-7.94;69.28
67186;HTU21D;54116;53.518;49.398;2023-02-24T08:14:44;-7.83;69.00
67186;HTU21D;54116;53.518;49.398;2023-02-24T08:17:25;-7.68;68.53
67186;HTU21D;54116;53.518;49.398;2023-02-24T08:19:54;-7.56;68.57
67186;HTU21D;54116;53.518;49.398;2023-02-24T08:22:41;-7.99;69.26
67186;HTU21D;54116;53.518;49.398;2023-02-24T08:25:10;-8.27;69.26
67186;HTU21D;54116;53.518;49.398;2023-02-24T08:27:45;-8.27;70.93
67186;HTU21D;54116;53.518;49.398;2023-02-24T08:30:12;-7.89;68.94
67186;HTU21D;54116;53.518;49.398;2023-02-24T08:32:50;-7.93;69.23
67186;HTU21D;54116;53.518;49.398;2023-02-24T08:35:27;-7.74;70.91
67186;HTU21D;54116;53.518;49.398;2023-02-24T08:38:21;-7.56;69.43
67186;HTU21D;54116;53.518;49.398;2023-02-24T08:40:50;-7.19;68.92
67186;HTU21D;54116;53.518;49.398;2023-02-24T08:43:24;-6.72;68.01
67186;HTU21D;54116;53.518;49.398;2023-02-24T08:46:20;-6.62;66.43
67186;HTU21D;54116;53.518;49.398;2023-02-24T08:48:56;-6.36;67.69
67186;HTU21D;54116;53.518;49.398;2023-02-24T08:51:31;-6.29;64.38
67186;HTU21D;54116;53.518;49.398;2023-02-24T08:54:05;-6.65;67.84
67186;HTU21D;54116;53.518;49.398;2023-02-24T08:56:36;-6.24;67.06
67186;HTU21D;54116;53.518;49.398;2023-02-24T08:59:10;-6.47;64.66
67186;HTU21D;54116;53.518;49.398;2023-02-24T09:01:58;-6.92;67.27
67186;HTU21D;54116;53.518;49.398;2023-02-24T09:04:50;-6.74;67.44
67186;HTU21D;54116;53.518;49.398;2023-02-24T09:07:22;-6.67;66.72
67186;HTU21D;54116;53.518;49.398;2023-02-24T09:09:49;-6.34;68.00
67186;HTU21D;54116;53.518;49.398;2023-02-24T09:12:25;-5.83;65.99
67186;HTU21D;54116;53.518;49.398;2023-02-24T09:14:58;-5.96;63.61
67186;HTU21D;54116;53.518;49.398;2023-02-24T09:17:28;-5.96;65.37
67186;HTU21D;54116;53.518;49.398;2023-02-24T09:20:26;-5.99;64.40
67186;HTU21D;54116;53.518;49.398;2023-02-24T09:23:21;-6.74;65.41
67186;HTU21D;54116;53.518;49.398;2023-02-24T09:25:55;-6.61;67.33
67186;HTU21D;54116;53.518;49.398;2023-02-24T09:28:24;-6.19;66.29
67186;HTU21D;54116;53.518;49.398;2023-02-24T09:30:53;-6.01;65.27
67186;HTU21D;54116;53.518;49.398;2023-02-24T09:33:26;-5.98;64.70
67186;HTU21D;54116;53.518;49.398;2023-02-24T09:35:58;-5.84;64.58
67186;HTU21D;54116;53.518;49.398;2023-02-24T09:38:50;-6.19;65.78
67186;HTU21D;54116;53.518;49.398;2023-02-24T09:44:40;-5.74;65.56
67186;HTU21D;54116;53.518;49.398;2023-02-24T09:49:59;-5.81;64.18
67186;HTU21D;54116;53.518;49.398;2023-02-24T09:52:30;-5.68;66.15
67186;HTU21D;54116;53.518;49.398;2023-02-24T09:55:31;-5.12;63.84
67186;HTU21D;54116;53.518;49.398;2023-02-24T10:06:27;-5.60;66.20
67186;HTU21D;54116;53.518;49.398;2023-02-24T10:09:31;-5.38;64.09
67186;HTU21D;54116;53.518;49.398;2023-02-24T10:12:28;-5.54;64.05
67186;HTU21D;54116;53.518;49.398;2023-02-24T10:15:26;-5.26;63.66
67186;HTU21D;54116;53.518;49.398;2023-02-24T10:21:52;-4.99;62.21
67186;HTU21D;54116;53.518;49.398;2023-02-24T10:24:41;-5.05;61.83
67186;HTU21D;54116;53.518;49.398;2023-02-24T10:27:22;-5.24;60.49
67186;HTU21D;54116;53.518;49.398;2023-02-24T10:30:01;-5.72;63.13
67186;HTU21D;54116;53.518;49.398;2023-02-24T10:32:51;-5.44;62.10
67186;HTU21D;54116;53.518;49.398;2023-02-24T10:35:20;-5.83;63.12
67186;HTU21D;54116;53.518;49.398;2023-02-24T10:37:48;-5.54;64.00
67186;HTU21D;54116;53.518;49.398;2023-02-24T10:40:15;-5.02;61.99
67186;HTU21D;54116;53.518;49.398;2023-02-24T10:43:04;-4.82;59.57
67186;HTU21D;54116;53.518;49.398;2023-02-24T10:45:39;-4.71;61.70
67186;HTU21D;54116;53.518;49.398;2023-02-24T10:48:24;-4.61;61.32
67186;HTU21D;54116;53.518;49.398;2023-02-24T10:50:54;-4.64;62.14
67186;HTU21D;54116;53.518;49.398;2023-02-24T10:53:33;-4.56;61.58
67186;HTU21D;54116;53.518;49.398;2023-02-24T10:56:12;-4.59;61.04
67186;HTU21D;54116;53.518;49.398;2023-02-24T11:02:06;-5.96;64.66
67186;HTU21D;54116;53.518;49.398;2023-02-24T11:04:53;-5.81;65.06
67186;HTU21D;54116;53.518;49.398;2023-02-24T11:07:30;-5.74;65.14
67186;HTU21D;54116;53.518;49.398;2023-02-24T11:10:17;-5.82;65.48
67186;HTU21D;54116;53.518;49.398;2023-02-24T11:12:53;-5.87;63.76
67186;HTU21D;54116;53.518;49.398;2023-02-24T11:15:43;-7.08;66.59
67186;HTU21D;54116;53.518;49.398;2023-02-24T11:18:30;-7.22;69.05
67186;HTU21D;54116;53.518;49.398;2023-02-24T11:21:02;-7.25;68.47
67186;HTU21D;54116;53.518;49.398;2023-02-24T11:23:38;-7.38;69.78
67186;HTU21D;54116;53.518;49.398;2023-02-24T11:26:29;-7.16;69.75
67186;HTU21D;54116;53.518;49.398;2023-02-24T11:35:12;-6.62;68.41
67186;HTU21D;54116;53.518;49.398;2023-02-24T11:37:57;-6.70;67.03
67186;HTU21D;54116;53.518;49.398;2023-02-24T11:40:36;-6.71;68.66
67186;HTU21D;54116;53.518;49.398;2023-02-24T11:43:14;-6.17;68.55
67186;HTU21D;54116;53.518;49.398;2023-02-24T11:45:51;-6.34;66.53
67186;HTU21D;54116;53.518;49.398;2023-02-24T11:51:00;-6.55;67.07
67186;HTU21D;54116;53.518;49.398;2023-02-24T11:59:06;-6.93;68.58
67186;HTU21D;54116;53.518;49.398;2023-02-24T12:01:54;-6.90;69.09
67186;HTU21D;54116;53.518;49.398;2023-02-24T12:07:23;-6.92;69.39
67186;HTU21D;54116;53.518;49.398;2023-02-24T12:15:55;-7.51;70.52
67186;HTU21D;54116;53.518;49.398;2023-02-24T12:18:37;-7.70;71.48
67186;HTU21D;54116;53.518;49.398;2023-02-24T12:21:10;-7.84;72.85
67186;HTU21D;54116;53.518;49.398;2023-02-24T12:23:43;-7.83;72.80
67186;HTU21D;54116;53.518;49.398;2023-02-24T12:43:35;-7.79;74.75
67186;HTU21D;54116;53.518;49.398;2023-02-24T12:46:26;-7.70;73.83
67186;HTU21D;54116;53.518;49.398;2023-02-24T12:49:31;-7.74;74.64
67186;HTU21D;54116;53.518;49.398;2023-02-24T13:03:25;-8.48;76.44
67186;HTU21D;54116;53.518;49.398;2023-02-24T13:06:12;-8.50;76.63
67186;HTU21D;54116;53.518;49.398;2023-02-24T13:11:46;-8.65;77.30
67186;HTU21D;54116;53.518;49.398;2023-02-24T13:14:27;-8.72;77.93
67186;HTU21D;54116;53.518;49.398;2023-02-24T13:17:19;-8.73;78.77
67186;HTU21D;54116;53.518;49.398;2023-02-24T13:19:47;-8.79;78.47
67186;HTU21D;54116;53.518;49.398;2023-02-24T13:24:54;-8.96;80.06
67186;HTU21D;54116;53.518;49.398;2023-02-24T13:27:30;-9.05;80.43
67186;HTU21D;54116;53.518;49.398;2023-02-24T13:30:05;-9.20;81.62
67186;HTU21D;54116;53.518;49.398;2023-02-24T13:32:39;-9.28;81.49
67186;HTU21D;54116;53.518;49.398;2023-02-24T13:37:52;-9.52;82.32
67186;HTU21D;54116;53.518;49.398;2023-02-24T13:40:23;-9.59;82.58
67186;HTU21D;54116;53.518;49.398;2023-02-24T13:45:29;-9.71;82.84
67186;HTU21D;54116;53.518;49.398;2023-02-24T13:54:02;-9.74;84.87
67186;HTU21D;54116;53.518;49.398;2023-02-24T14:02:16;-9.87;85.04
67186;HTU21D;54116;53.518;49.398;2023-02-24T14:04:53;-9.91;85.59
67186;HTU21D;54116;53.518;49.398;2023-02-24T14:09:57;-9.96;85.84
67186;HTU21D;54116;53.518;49.398;2023-02-24T14:12:26;-9.96;86.02
67186;HTU21D;54116;53.518;49.398;2023-02-24T14:14:54;-9.93;86.19
67186;HTU21D;54116;53.518;49.398;2023-02-24T14:17:28;-9.93;86.70
67186;HTU21D;54116;53.518;49.398;2023-02-24T14:22:44;-9.94;86.32
67186;HTU21D;54116;53.518;49.398;2023-02-24T14:25:12;-9.92;86.09
67186;HTU21D;54116;53.518;49.398;2023-02-24T14:27:39;-9.91;86.09
67186;HTU21D;54116;53.518;49.398;2023-02-24T14:30:22;-9.90;86.52
67186;HTU21D;54116;53.518;49.398;2023-02-24T14:32:49;-9.89;86.67
67186;HTU21D;54116;53.518;49.398;2023-02-24T14:35:23;-9.85;86.81
67186;HTU21D;54116;53.518;49.398;2023-02-24T14:37:51;-9.85;86.48
67186;HTU21D;54116;53.518;49.398;2023-02-24T14:40:18;-9.82;86.66
67186;HTU21D;54116;53.518;49.398;2023-02-24T14:42:48;-9.79;86.86
67186;HTU21D;54116;53.518;49.398;2023-02-24T14:45:18;-9.76;86.91
67186;HTU21D;54116;53.518;49.398;2023-02-24T14:47:47;-9.75;86.51
67186;HTU21D;54116;53.518;49.398;2023-02-24T14:50:17;-9.74;86.77
67186;HTU21D;54116;53.518;49.398;2023-02-24T14:53:11;-9.73;86.45
67186;HTU21D;54116;53.518;49.398;2023-02-24T14:55:38;-9.71;85.83
67186;HTU21D;54116;53.518;49.398;2023-02-24T14:58:24;-9.72;86.36
67186;HTU21D;54116;53.518;49.398;2023-02-24T15:01:10;-9.71;86.19
67186;HTU21D;54116;53.518;49.398;2023-02-24T15:03:45;-9.71;85.80
67186;HTU21D;54116;53.518;49.398;2023-02-24T15:06:21;-9.72;85.84
67186;HTU21D;54116;53.518;49.398;2023-02-24T15:09:02;-9.71;85.80
67186;HTU21D;54116;53.518;49.398;2023-02-24T15:11:32;-9.73;86.10
67186;HTU21D;54116;53.518;49.398;2023-02-24T15:14:04;-9.75;86.61
67186;HTU21D;54116;53.518;49.398;2023-02-24T15:19:01;-9.76;86.98
67186;HTU21D;54116;53.518;49.398;2023-02-24T15:21:28;-9.79;86.82
67186;HTU21D;54116;53.518;49.398;2023-02-24T15:24:03;-9.79;86.89
67186;HTU21D;54116;53.518;49.398;2023-02-24T15:26:38;-9.82;87.12
67186;HTU21D;54116;53.518;49.398;2023-02-24T15:29:19;-9.81;86.94
67186;HTU21D;54116;53.518;49.398;2023-02-24T15:31:48;-9.79;87.22
67186;HTU21D;54116;53.518;49.398;2023-02-24T15:34:26;-9.78;86.70
67186;HTU21D;54116;53.518;49.398;2023-02-24T15:37:00;-9.78;86.64
67186;HTU21D;54116;53.518;49.398;2023-02-24T15:39:31;-9.79;87.26
67186;HTU21D;54116;53.518;49.398;2023-02-24T15:42:12;-9.79;87.49
67186;HTU21D;54116;53.518;49.398;2023-02-24T15:44:55;-9.79;87.86
67186;HTU21D;54116;53.518;49.398;2023-02-24T15:47:27;-9.79;88.25
67186;HTU21D;54116;53.518;49.398;2023-02-24T15:49:53;-9.77;88.34
67186;HTU21D;54116;53.518;49.398;2023-02-24T15:52:26;-9.75;88.34
67186;HTU21D;54116;53.518;49.398;2023-02-24T15:54:55;-9.74;88.20
67186;HTU21D;54116;53.518;49.398;2023-02-24T15:57:24;-9.72;88.25
67186;HTU21D;54116;53.518;49.398;2023-02-24T15:59:51;-9.72;87.99
67186;HTU21D;54116;53.518;49.398;2023-02-24T16:02:19;-9.68;87.80
67186;HTU21D;54116;53.518;49.398;2023-02-24T16:04:47;-9.68;87.61
67186;HTU21D;54116;53.518;49.398;2023-02-24T16:07:31;-9.64;87.80
67186;HTU21D;54116;53.518;49.398;2023-02-24T16:09:59;-9.64;88.09
67186;HTU21D;54116;53.518;49.398;2023-02-24T16:12:30;-9.63;87.40
67186;HTU21D;54116;53.518;49.398;2023-02-24T16:14:58;-9.59;87.70
67186;HTU21D;54116;53.518;49.398;2023-02-24T16:17:37;-9.57;87.66
67186;HTU21D;54116;53.518;49.398;2023-02-24T16:20:10;-9.57;87.47
67186;HTU21D;54116;53.518;49.398;2023-02-24T16:22:37;-9.56;87.70
67186;HTU21D;54116;53.518;49.398;2023-02-24T16:25:04;-9.53;87.34
67186;HTU21D;54116;53.518;49.398;2023-02-24T16:27:32;-9.47;87.39
67186;HTU21D;54116;53.518;49.398;2023-02-24T16:29:59;-9.47;86.98
67186;HTU21D;54116;53.518;49.398;2023-02-24T16:32:25;-9.45;86.80
67186;HTU21D;54116;53.518;49.398;2023-02-24T16:34:52;-9.43;87.12
67186;HTU21D;54116;53.518;49.398;2023-02-24T16:37:25;-9.42;87.37
67186;HTU21D;54116;53.518;49.398;2023-02-24T16:39:52;-9.41;86.79
67186;HTU21D;54116;53.518;49.398;2023-02-24T16:42:19;-9.40;87.09
67186;HTU21D;54116;53.518;49.398;2023-02-24T16:44:47;-9.37;87.11
67186;HTU21D;54116;53.518;49.398;2023-02-24T16:47:18;-9.36;87.12
67186;HTU21D;54116;53.518;49.398;2023-02-24T16:49:45;-9.34;86.81
67186;HTU21D;54116;53.518;49.398;2023-02-24T16:52:12;-9.34;86.99
67186;HTU21D;54116;53.518;49.398;2023-02-24T16:54:39;-9.32;86.60
67186;HTU21D;54116;53.518;49.398;2023-02-24T16:57:05;-9.32;86.61
67186;HTU21D;54116;53.518;49.398;2023-02-24T16:59:32;-9.31;86.32
67186;HTU21D;54116;53.518;49.398;2023-02-24T17:01:59;-9.32;86.97
67186;HTU21D;54116;53.518;49.398;2023-02-24T17:04:27;-9.33;86.38
67186;HTU21D;54116;53.518;49.398;2023-02-24T17:06:54;-9.34;86.46
67186;HTU21D;54116;53.518;49.398;2023-02-24T17:09:21;-9.33;86.93
67186;HTU21D;54116;53.518;49.398;2023-02-24T17:11:47;-9.33;87.49
67186;HTU21D;54116;53.518;49.398;2023-02-24T17:14:15;-9.32;87.66
67186;HTU21D;54116;53.518;49.398;2023-02-24T17:16:43;-9.33;87.45
67186;HTU21D;54116;53.518;49.398;2023-02-24T17:19:10;-9.31;87.11
67186;HTU21D;54116;53.518;49.398;2023-02-24T17:21:41;-9.31;87.49
67186;HTU21D;54116;53.518;49.398;2023-02-24T17:24:16;-9.32;87.94
67186;HTU21D;54116;53.518;49.398;2023-02-24T17:26:43;-9.31;87.44
67186;HTU21D;54116;53.518;49.398;2023-02-24T17:29:10;-9.30;87.25
67186;HTU21D;54116;53.518;49.398;2023-02-24T17:31:39;-9.29;87.29
67186;HTU21D;54116;53.518;49.398;2023-02-24T17:34:05;-9.29;87.12
67186;HTU21D;54116;53.518;49.398;2023-02-24T17:36:32;-9.31;87.29
67186;HTU21D;54116;53.518;49.398;2023-02-24T17:39:05;-9.30;87.50
67186;HTU21D;54116;53.518;49.398;2023-02-24T17:41:31;-9.31;87.55
67186;HTU21D;54116;53.518;49.398;2023-02-24T17:43:58;-9.30;87.73
67186;HTU21D;54116;53.518;49.398;2023-02-24T17:46:24;-9.30;86.63
67186;HTU21D;54116;53.518;49.398;2023-02-24T17:48:50;-9.29;86.76
67186;HTU21D;54116;53.518;49.398;2023-02-24T17:51:18;-9.29;86.95
67186;HTU21D;54116;53.518;49.398;2023-02-24T17:53:45;-9.29;88.41
67186;HTU21D;54116;53.518;49.398;2023-02-24T17:56:12;-9.31;90.87
67186;HTU21D;54116;53.518;49.398;2023-02-24T17:58:39;-9.36;93.18
67186;HTU21D;54116;53.518;49.398;2023-02-24T18:01:06;-9.40;94.25
67186;HTU21D;54116;53.518;49.398;2023-02-24T18:03:34;-9.41;94.27
67186;HTU21D;54116;53.518;49.398;2023-02-24T18:06:03;-9.41;94.06
67186;HTU21D;54116;53.518;49.398;2023-02-24T18:08:32;-9.46;93.45
67186;HTU21D;54116;53.518;49.398;2023-02-24T18:11:00;-9.48;93.37
67186;HTU21D;54116;53.518;49.398;2023-02-24T18:13:27;-9.52;93.72
67186;HTU21D;54116;53.518;49.398;2023-02-24T18:15:53;-9.54;93.25
67186;HTU21D;54116;53.518;49.398;2023-02-24T18:18:19;-9.53;93.21
67186;HTU21D;54116;53.518;49.398;2023-02-24T18:20:46;-9.53;92.70
67186;HTU21D;54116;53.518;49.398;2023-02-24T18:23:12;-9.51;91.44
67186;HTU21D;54116;53.518;49.398;2023-02-24T18:25:39;-9.46;90.66
67186;HTU21D;54116;53.518;49.398;2023-02-24T18:28:05;-9.47;89.98
67186;HTU21D;54116;53.518;49.398;2023-02-24T18:30:32;-9.45;89.71
67186;HTU21D;54116;53.518;49.398;2023-02-24T18:32:58;-9.41;89.38
67186;HTU21D;54116;53.518;49.398;2023-02-24T18:35:25;-9.40;88.94
67186;HTU21D;54116;53.518;49.398;2023-02-24T18:37:52;-9.41;88.27
67186;HTU21D;54116;53.518;49.398;2023-02-24T18:40:22;-9.40;87.73
67186;HTU21D;54116;53.518;49.398;2023-02-24T18:42:50;-9.38;87.77
67186;HTU21D;54116;53.518;49.398;2023-02-24T18:45:17;-9.38;87.15
67186;HTU21D;54116;53.518;49.398;2023-02-24T18:47:45;-9.38;86.54
67186;HTU21D;54116;53.518;49.398;2023-02-24T18:50:12;-9.37;86.70
67186;HTU21D;54116;53.518;49.398;2023-02-24T18:52:39;-9.32;85.13
67186;HTU21D;54116;53.518;49.398;2023-02-24T18:55:07;-9.29;85.38
67186;HTU21D;54116;53.518;49.398;2023-02-24T18:57:33;-9.28;85.27
67186;HTU21D;54116;53.518;49.398;2023-02-24T19:00:00;-9.28;84.75
67186;HTU21D;54116;53.518;49.398;2023-02-24T19:02:26;-9.26;84.63
67186;HTU21D;54116;53.518;49.398;2023-02-24T19:04:52;-9.26;85.23
67186;HTU21D;54116;53.518;49.398;2023-02-24T19:07:19;-9.25;84.52
67186;HTU21D;54116;53.518;49.398;2023-02-24T19:09:49;-9.23;84.82
67186;HTU21D;54116;53.518;49.398;2023-02-24T19:12:15;-9.22;84.85
67186;HTU21D;54116;53.518;49.398;2023-02-24T19:14:43;-9.20;84.80
67186;HTU21D;54116;53.518;49.398;2023-02-24T19:17:11;-9.19;84.63
67186;HTU21D;54116;53.518;49.398;2023-02-24T19:19:38;-9.17;85.05
67186;HTU21D;54116;53.518;49.398;2023-02-24T19:22:05;-9.14;84.72
67186;HTU21D;54116;53.518;49.398;2023-02-24T19:24:31;-9.13;84.74
67186;HTU21D;54116;53.518;49.398;2023-02-24T19:26:57;-9.14;84.51
67186;HTU21D;54116;53.518;49.398;2023-02-24T19:29:24;-9.14;84.78
67186;HTU21D;54116;53.518;49.398;2023-02-24T19:31:50;-9.14;84.81
67186;HTU21D;54116;53.518;49.398;2023-02-24T19:34:18;-9.13;84.78
67186;HTU21D;54116;53.518;49.398;2023-02-24T19:36:45;-9.14;84.64
67186;HTU21D;54116;53.518;49.398;2023-02-24T19:39:14;-9.11;84.48
67186;HTU21D;54116;53.518;49.398;2023-02-24T19:41:40;-9.14;84.92
67186;HTU21D;54116;53.518;49.398;2023-02-24T19:44:07;-9.12;84.36
67186;HTU21D;54116;53.518;49.398;2023-02-24T19:46:35;-9.12;84.41
67186;HTU21D;54116;53.518;49.398;2023-02-24T19:49:02;-9.14;84.93
67186;HTU21D;54116;53.518;49.398;2023-02-24T19:51:29;-9.15;84.62
67186;HTU21D;54116;53.518;49.398;2023-02-24T19:53:57;-9.14;84.84
67186;HTU21D;54116;53.518;49.398;2023-02-24T19:56:34;-9.15;84.16
67186;HTU21D;54116;53.518;49.398;2023-02-24T19:59:03;-9.16;84.61
67186;HTU21D;54116;53.518;49.398;2023-02-24T20:01:30;-9.16;84.86
67186;HTU21D;54116;53.518;49.398;2023-02-24T20:03:59;-9.18;84.68
67186;HTU21D;54116;53.518;49.398;2023-02-24T20:06:35;-9.18;84.66
67186;HTU21D;54116;53.518;49.398;2023-02-24T20:09:06;-9.17;85.09
67186;HTU21D;54116;53.518;49.398;2023-02-24T20:11:34;-9.12;84.92
67186;HTU21D;54116;53.518;49.398;2023-02-24T20:14:01;-9.10;84.90
67186;HTU21D;54116;53.518;49.398;2023-02-24T20:16:27;-9.11;85.51
67186;HTU21D;54116;53.518;49.398;2023-02-24T20:18:57;-9.11;85.42
67186;HTU21D;54116;53.518;49.398;2023-02-24T20:21:25;-9.08;85.34
67186;HTU21D;54116;53.518;49.398;2023-02-24T20:23:51;-9.10;85.51
67186;HTU21D;54116;53.518;49.398;2023-02-24T20:26:19;-9.08;85.07
67186;HTU21D;54116;53.518;49.398;2023-02-24T20:28:47;-9.07;85.17
67186;HTU21D;54116;53.518;49.398;2023-02-24T20:31:15;-9.07;85.08
67186;HTU21D;54116;53.518;49.398;2023-02-24T20:33:44;-9.10;85.56
67186;HTU21D;54116;53.518;49.398;2023-02-24T20:36:20;-9.13;85.04
67186;HTU21D;54116;53.518;49.398;2023-02-24T20:38:48;-9.13;85.31
67186;HTU21D;54116;53.518;49.398;2023-02-24T20:41:16;-9.12;85.39
67186;HTU21D;54116;53.518;49.398;2023-02-24T20:43:42;-9.12;85.56
67186;HTU21D;54116;53.518;49.398;2023-02-24T20:46:18;-9.13;86.01
67186;HTU21D;54116;53.518;49.398;2023-02-24T20:48:48;-9.15;86.25
67186;HTU21D;54116;53.518;49.398;2023-02-24T20:51:14;-9.13;86.29
67186;HTU21D;54116;53.518;49.398;2023-02-24T20:53:40;-9.12;86.75
67186;HTU21D;54116;53.518;49.398;2023-02-24T20:56:10;-9.14;87.00
67186;HTU21D;54116;53.518;49.398;2023-02-24T20:58:52;-9.13;87.28
67186;HTU21D;54116;53.518;49.398;2023-02-24T21:01:19;-9.11;87.38
67186;HTU21D;54116;53.518;49.398;2023-02-24T21:03:47;-9.08;87.07
67186;HTU21D;54116;53.518;49.398;2023-02-24T21:06:14;-9.08;87.43
67186;HTU21D;54116;53.518;49.398;2023-02-24T21:08:41;-9.07;87.70
67186;HTU21D;54116;53.518;49.398;2023-02-24T21:11:12;-9.03;87.51
67186;HTU21D;54116;53.518;49.398;2023-02-24T21:13:41;-9.02;87.37
67186;HTU21D;54116;53.518;49.398;2023-02-24T21:16:08;-9.01;87.52
67186;HTU21D;54116;53.518;49.398;2023-02-24T21:18:37;-9.03;87.77
67186;HTU21D;54116;53.518;49.398;2023-02-24T21:21:04;-9.03;87.84
67186;HTU21D;54116;53.518;49.398;2023-02-24T21:23:31;-9.02;88.12
67186;HTU21D;54116;53.518;49.398;2023-02-24T21:25:58;-9.03;87.99
67186;HTU21D;54116;53.518;49.398;2023-02-24T21:28:24;-9.01;88.33
67186;HTU21D;54116;53.518;49.398;2023-02-24T21:30:51;-9.01;88.64
67186;HTU21D;54116;53.518;49.398;2023-02-24T21:33:19;-9.02;88.44
67186;HTU21D;54116;53.518;49.398;2023-02-24T21:35:58;-9.00;88.49
67186;HTU21D;54116;53.518;49.398;2023-02-24T21:38:25;-8.99;88.08
67186;HTU21D;54116;53.518;49.398;2023-02-24T21:40:52;-8.95;88.06
67186;HTU21D;54116;53.518;49.398;2023-02-24T21:43:19;-8.94;88.28
67186;HTU21D;54116;53.518;49.398;2023-02-24T21:45:46;-8.93;87.42
67186;HTU21D;54116;53.518;49.398;2023-02-24T21:48:13;-8.93;87.45
67186;HTU21D;54116;53.518;49.398;2023-02-24T21:50:39;-8.94;87.80
67186;HTU21D;54116;53.518;49.398;2023-02-24T21:53:05;-8.92;87.76
67186;HTU21D;54116;53.518;49.398;2023-02-24T21:55:31;-8.89;87.53
67186;HTU21D;54116;53.518;49.398;2023-02-24T21:57:59;-8.86;87.41
67186;HTU21D;54116;53.518;49.398;2023-02-24T22:00:25;-8.80;86.80
67186;HTU21D;54116;53.518;49.398;2023-02-24T22:02:55;-8.71;86.53
67186;HTU21D;54116;53.518;49.398;2023-02-24T22:05:23;-8.72;86.96
67186;HTU21D;54116;53.518;49.398;2023-02-24T22:07:50;-8.72;87.11
67186;HTU21D;54116;53.518;49.398;2023-02-24T22:10:20;-8.72;87.07
67186;HTU21D;54116;53.518;49.398;2023-02-24T22:12:47;-8.70;87.55
67186;HTU21D;54116;53.518;49.398;2023-02-24T22:15:13;-8.70;87.25
67186;HTU21D;54116;53.518;49.398;2023-02-24T22:17:40;-8.68;87.38
67186;HTU21D;54116;53.518;49.398;2023-02-24T22:20:09;-8.66;87.02
67186;HTU21D;54116;53.518;49.398;2023-02-24T22:22:37;-8.62;87.20
67186;HTU21D;54116;53.518;49.398;2023-02-24T22:25:04;-8.60;86.86
67186;HTU21D;54116;53.518;49.398;2023-02-24T22:27:31;-8.57;87.07
67186;HTU21D;54116;53.518;49.398;2023-02-24T22:29:58;-8.58;87.38
67186;HTU21D;54116;53.518;49.398;2023-02-24T22:32:24;-8.59;87.26
67186;HTU21D;54116;53.518;49.398;2023-02-24T22:34:50;-8.57;87.16
67186;HTU21D;54116;53.518;49.398;2023-02-24T22:37:17;-8.56;87.10
67186;HTU21D;54116;53.518;49.398;2023-02-24T22:39:43;-8.56;87.42
67186;HTU21D;54116;53.518;49.398;2023-02-24T22:42:09;-8.56;87.10